createdAt,value
2019-03-03T00:00:47.447Z,435
2019-03-03T00:01:54.686Z,437
2019-03-03T00:03:01.882Z,437
2019-03-03T00:04:09.096Z,438
2019-03-03T00:05:16.027Z,438
2019-03-03T00:06:22.965Z,438
2019-03-03T00:07:30.194Z,439
2019-03-03T00:08:37.122Z,439
2019-03-03T00:09:44.332Z,440
2019-03-03T00:10:51.267Z,440
2019-03-03T00:11:58.472Z,440
2019-03-03T00:13:05.402Z,440
2019-03-03T00:14:12.610Z,440
2019-03-03T00:15:19.813Z,440
2019-03-03T00:16:26.747Z,440
2019-03-03T00:17:33.952Z,441
2019-03-03T00:18:40.911Z,442
2019-03-03T00:19:48.124Z,442
2019-03-03T00:20:55.344Z,443
2019-03-03T00:22:02.556Z,442
2019-03-03T00:23:09.497Z,443
2019-03-03T00:24:16.400Z,443
2019-03-03T00:25:23.603Z,442
2019-03-03T00:26:30.814Z,443
2019-03-03T00:27:38.035Z,444
2019-03-03T00:28:44.967Z,446
2019-03-03T00:29:52.185Z,446
2019-03-03T00:31:00.003Z,447
2019-03-03T00:32:07.269Z,447
2019-03-03T00:33:14.198Z,449
2019-03-03T00:34:21.403Z,448
2019-03-03T00:35:28.608Z,449
2019-03-03T00:36:38.351Z,450
2019-03-03T00:37:45.290Z,451
2019-03-03T00:38:52.501Z,452
2019-03-03T00:39:59.707Z,453
2019-03-03T00:41:07.025Z,453
2019-03-03T00:42:13.956Z,453
2019-03-03T00:43:21.165Z,451
2019-03-03T00:44:28.104Z,450
2019-03-03T00:45:35.025Z,448
2019-03-03T00:46:41.961Z,445
2019-03-03T00:47:48.886Z,448
2019-03-03T00:48:56.088Z,449
2019-03-03T00:50:03.321Z,451
2019-03-03T00:51:10.248Z,454
2019-03-03T00:52:17.466Z,456
2019-03-03T00:53:24.674Z,458
2019-03-03T00:54:31.879Z,460
2019-03-03T00:55:39.087Z,461
2019-03-03T00:56:46.293Z,462
2019-03-03T00:57:53.508Z,462
2019-03-03T00:59:00.449Z,463
2019-03-03T01:00:07.657Z,463
2019-03-03T01:01:14.601Z,465
2019-03-03T01:02:21.809Z,465
2019-03-03T01:03:29.025Z,465
2019-03-03T01:04:36.234Z,466
2019-03-03T01:05:43.453Z,466
2019-03-03T01:06:50.659Z,465
2019-03-03T01:07:57.594Z,466
2019-03-03T01:09:04.525Z,465
2019-03-03T01:10:11.731Z,465
2019-03-03T01:11:18.943Z,466
2019-03-03T01:12:26.141Z,464
2019-03-03T01:13:33.347Z,463
2019-03-03T01:14:40.561Z,462
2019-03-03T01:15:47.770Z,452
2019-03-03T01:16:54.717Z,448
2019-03-03T01:18:01.920Z,448
2019-03-03T01:19:08.867Z,448
2019-03-03T01:20:16.065Z,449
2019-03-03T01:21:23.288Z,447
2019-03-03T01:22:30.496Z,446
2019-03-03T01:23:37.711Z,447
2019-03-03T01:24:44.651Z,446
2019-03-03T01:25:51.585Z,450
2019-03-03T01:26:58.791Z,453
2019-03-03T01:28:06.016Z,450
2019-03-03T01:29:13.221Z,450
2019-03-03T01:30:20.448Z,446
2019-03-03T01:31:27.693Z,446
2019-03-03T01:32:34.904Z,445
2019-03-03T01:33:42.107Z,445
2019-03-03T01:34:49.035Z,446
2019-03-03T01:35:56.238Z,446
2019-03-03T01:37:03.168Z,445
2019-03-03T01:38:10.091Z,446
2019-03-03T01:39:17.308Z,445
2019-03-03T01:40:24.521Z,447
2019-03-03T01:41:31.742Z,447
2019-03-03T01:42:38.947Z,447
2019-03-03T01:43:46.147Z,446
2019-03-03T01:44:53.085Z,446
2019-03-03T01:46:00.320Z,447
2019-03-03T01:47:07.526Z,446
2019-03-03T01:48:14.968Z,447
2019-03-03T01:49:22.523Z,447
2019-03-03T01:50:29.172Z,447
2019-03-03T01:51:36.370Z,448
2019-03-03T01:52:43.575Z,448
2019-03-03T01:53:50.507Z,448
2019-03-03T01:54:57.712Z,448
2019-03-03T01:56:04.925Z,448
2019-03-03T01:57:12.131Z,448
2019-03-03T01:58:19.331Z,449
2019-03-03T01:59:26.535Z,449
2019-03-03T02:00:33.739Z,449
2019-03-03T02:01:40.942Z,449
2019-03-03T02:02:48.148Z,448
2019-03-03T02:03:55.087Z,449
2019-03-03T02:05:02.018Z,449
2019-03-03T02:06:09.225Z,450
2019-03-03T02:07:16.166Z,451
2019-03-03T02:08:23.100Z,453
2019-03-03T02:09:30.307Z,451
2019-03-03T02:10:37.529Z,451
2019-03-03T02:11:44.491Z,450
2019-03-03T02:12:51.692Z,451
2019-03-03T02:13:58.902Z,451
2019-03-03T02:15:06.110Z,451
2019-03-03T02:16:13.318Z,452
2019-03-03T02:17:20.528Z,452
2019-03-03T02:18:27.457Z,452
2019-03-03T02:19:34.658Z,453
2019-03-03T02:20:41.861Z,453
2019-03-03T02:21:48.791Z,452
2019-03-03T02:22:56.003Z,452
2019-03-03T02:24:03.212Z,452
2019-03-03T02:25:10.410Z,452
2019-03-03T02:26:17.632Z,453
2019-03-03T02:27:24.570Z,451
2019-03-03T02:28:31.497Z,453
2019-03-03T02:29:38.706Z,452
2019-03-03T02:30:45.962Z,452
2019-03-03T02:31:53.190Z,453
2019-03-03T02:33:00.112Z,452
2019-03-03T02:34:07.039Z,453
2019-03-03T02:35:14.262Z,453
2019-03-03T02:36:21.500Z,453
2019-03-03T02:37:28.838Z,453
2019-03-03T02:38:36.063Z,453
2019-03-03T02:39:43.268Z,453
2019-03-03T02:40:50.473Z,453
2019-03-03T02:41:57.683Z,453
2019-03-03T02:43:04.899Z,453
2019-03-03T02:44:12.091Z,452
2019-03-03T02:45:19.313Z,453
2019-03-03T02:46:26.518Z,452
2019-03-03T02:47:33.176Z,453
2019-03-03T02:48:40.423Z,452
2019-03-03T02:49:47.624Z,452
2019-03-03T02:50:54.825Z,452
2019-03-03T02:52:02.033Z,453
2019-03-03T02:53:09.230Z,452
2019-03-03T02:54:16.444Z,453
2019-03-03T02:55:23.660Z,454
2019-03-03T02:56:30.864Z,453
2019-03-03T02:57:38.083Z,452
2019-03-03T02:58:45.283Z,454
2019-03-03T02:59:52.220Z,454
2019-03-03T03:00:59.443Z,452
2019-03-03T03:02:06.657Z,453
2019-03-03T03:03:13.876Z,453
2019-03-03T03:04:20.816Z,453
2019-03-03T03:05:28.026Z,453
2019-03-03T03:06:34.969Z,453
2019-03-03T03:07:42.190Z,453
2019-03-03T03:08:49.157Z,452
2019-03-03T03:09:56.354Z,452
2019-03-03T03:11:03.289Z,452
2019-03-03T03:12:09.946Z,453
2019-03-03T03:13:17.153Z,452
2019-03-03T03:14:24.363Z,453
2019-03-03T03:15:31.574Z,452
2019-03-03T03:16:38.792Z,453
2019-03-03T03:17:45.999Z,453
2019-03-03T03:18:53.213Z,453
2019-03-03T03:20:00.412Z,454
2019-03-03T03:21:07.628Z,454
2019-03-03T03:22:14.834Z,453
2019-03-03T03:23:22.038Z,454
2019-03-03T03:24:28.981Z,452
2019-03-03T03:25:36.197Z,453
2019-03-03T03:26:43.162Z,453
2019-03-03T03:27:50.360Z,453
2019-03-03T03:28:57.579Z,453
2019-03-03T03:30:04.797Z,453
2019-03-03T03:31:12.042Z,453
2019-03-03T03:32:19.252Z,454
2019-03-03T03:33:26.499Z,454
2019-03-03T03:34:33.705Z,454
2019-03-03T03:35:40.944Z,454
2019-03-03T03:36:48.175Z,455
2019-03-03T03:37:55.386Z,454
2019-03-03T03:39:02.606Z,453
2019-03-03T03:40:09.810Z,453
2019-03-03T03:41:17.017Z,454
2019-03-03T03:42:24.455Z,453
2019-03-03T03:43:31.687Z,453
2019-03-03T03:44:38.861Z,453
2019-03-03T03:45:46.073Z,453
2019-03-03T03:46:53.307Z,453
2019-03-03T03:47:59.994Z,453
2019-03-03T03:49:07.248Z,454
2019-03-03T03:50:14.540Z,453
2019-03-03T03:51:21.766Z,454
2019-03-03T03:52:28.962Z,453
2019-03-03T03:53:36.183Z,453
2019-03-03T03:54:43.399Z,453
2019-03-03T03:55:50.331Z,453
2019-03-03T03:56:57.536Z,454
2019-03-03T03:58:04.489Z,453
2019-03-03T03:59:11.706Z,453
2019-03-03T04:00:18.632Z,454
2019-03-03T04:01:25.854Z,453
2019-03-03T04:02:32.833Z,453
2019-03-03T04:03:40.068Z,453
2019-03-03T04:04:47.288Z,453
2019-03-03T04:05:54.500Z,453
2019-03-03T04:07:01.481Z,453
2019-03-03T04:08:08.763Z,454
2019-03-03T04:09:16.247Z,454
2019-03-03T04:10:23.461Z,453
2019-03-03T04:11:30.896Z,453
2019-03-03T04:12:37.829Z,453
2019-03-03T04:13:44.763Z,453
2019-03-03T04:14:51.986Z,454
2019-03-03T04:15:58.918Z,452
2019-03-03T04:17:06.126Z,453
2019-03-03T04:18:13.078Z,453
2019-03-03T04:19:20.283Z,453
2019-03-03T04:20:27.704Z,454
2019-03-03T04:21:34.637Z,454
2019-03-03T04:22:41.886Z,454
2019-03-03T04:23:49.095Z,453
2019-03-03T04:24:56.314Z,454
2019-03-03T04:26:03.510Z,454
2019-03-03T04:27:10.718Z,453
2019-03-03T04:28:17.944Z,454
2019-03-03T04:29:25.155Z,453
2019-03-03T04:30:32.359Z,454
2019-03-03T04:31:39.299Z,453
2019-03-03T04:32:46.507Z,454
2019-03-03T04:33:53.170Z,453
2019-03-03T04:35:00.385Z,453
2019-03-03T04:36:07.586Z,453
2019-03-03T04:37:14.532Z,454
2019-03-03T04:38:21.491Z,454
2019-03-03T04:39:28.712Z,453
2019-03-03T04:40:35.924Z,453
2019-03-03T04:41:43.145Z,453
2019-03-03T04:42:50.341Z,454
2019-03-03T04:43:57.545Z,453
2019-03-03T04:45:04.779Z,454
2019-03-03T04:46:11.990Z,453
2019-03-03T04:47:19.153Z,454
2019-03-03T04:48:25.568Z,453
2019-03-03T04:49:32.797Z,454
2019-03-03T04:50:39.751Z,454
2019-03-03T04:51:46.948Z,454
2019-03-03T04:52:54.179Z,454
2019-03-03T04:54:01.111Z,454
2019-03-03T04:55:07.796Z,453
2019-03-03T04:56:15.012Z,455
2019-03-03T04:57:22.243Z,453
2019-03-03T04:58:28.924Z,453
2019-03-03T04:59:36.132Z,454
2019-03-03T05:00:43.577Z,453
2019-03-03T05:01:51.006Z,454
2019-03-03T05:02:58.450Z,454
2019-03-03T05:04:05.674Z,454
2019-03-03T05:05:12.904Z,454
2019-03-03T05:06:20.129Z,453
2019-03-03T05:07:27.337Z,453
2019-03-03T05:08:34.552Z,454
2019-03-03T05:09:41.793Z,454
2019-03-03T05:10:49.006Z,455
2019-03-03T05:11:56.223Z,454
2019-03-03T05:13:03.432Z,454
2019-03-03T05:14:10.361Z,454
2019-03-03T05:15:17.588Z,454
2019-03-03T05:16:24.810Z,454
2019-03-03T05:17:31.756Z,454
2019-03-03T05:18:38.986Z,453
2019-03-03T05:19:46.225Z,454
2019-03-03T05:20:53.665Z,453
2019-03-03T05:22:00.878Z,453
2019-03-03T05:23:08.046Z,452
2019-03-03T05:24:14.976Z,452
2019-03-03T05:25:23.941Z,452
2019-03-03T05:26:30.886Z,452
2019-03-03T05:27:38.108Z,452
2019-03-03T05:28:45.316Z,452
2019-03-03T05:29:52.538Z,452
2019-03-03T05:30:59.764Z,452
2019-03-03T05:32:07.206Z,452
2019-03-03T05:33:14.427Z,452
2019-03-03T05:34:21.599Z,452
2019-03-03T05:35:28.824Z,452
2019-03-03T05:36:36.259Z,452
2019-03-03T05:37:43.469Z,452
2019-03-03T05:38:50.745Z,451
2019-03-03T05:39:57.703Z,452
2019-03-03T05:41:04.949Z,451
2019-03-03T05:42:12.179Z,452
2019-03-03T05:43:19.654Z,452
2019-03-03T05:44:26.870Z,452
2019-03-03T05:45:34.089Z,451
2019-03-03T05:46:41.313Z,452
2019-03-03T05:47:48.539Z,451
2019-03-03T05:48:55.795Z,451
2019-03-03T05:50:03.008Z,451
2019-03-03T05:51:10.221Z,451
2019-03-03T05:52:17.656Z,452
2019-03-03T05:53:24.869Z,451
2019-03-03T05:54:32.013Z,452
2019-03-03T05:55:39.244Z,451
2019-03-03T05:56:46.467Z,451
2019-03-03T05:57:53.693Z,451
2019-03-03T05:59:00.915Z,451
2019-03-03T06:00:08.130Z,451
2019-03-03T06:01:15.058Z,451
2019-03-03T06:02:22.015Z,452
2019-03-03T06:03:29.243Z,452
2019-03-03T06:04:36.465Z,451
2019-03-03T06:05:43.691Z,451
2019-03-03T06:06:50.345Z,451
2019-03-03T06:07:57.307Z,452
2019-03-03T06:09:04.512Z,451
2019-03-03T06:10:11.934Z,451
2019-03-03T06:11:19.148Z,451
2019-03-03T06:12:26.139Z,452
2019-03-03T06:13:33.363Z,452
2019-03-03T06:14:40.596Z,451
2019-03-03T06:15:47.823Z,452
2019-03-03T06:16:55.049Z,451
2019-03-03T06:18:02.259Z,451
2019-03-03T06:19:09.699Z,452
2019-03-03T06:20:16.903Z,451
2019-03-03T06:21:24.339Z,451
2019-03-03T06:22:31.273Z,450
2019-03-03T06:23:38.485Z,451
2019-03-03T06:24:45.723Z,451
2019-03-03T06:25:52.922Z,451
2019-03-03T06:26:59.865Z,450
2019-03-03T06:28:07.088Z,450
2019-03-03T06:29:14.292Z,450
2019-03-03T06:30:21.448Z,450
2019-03-03T06:31:28.665Z,450
2019-03-03T06:32:36.105Z,450
2019-03-03T06:33:43.320Z,450
2019-03-03T06:34:50.533Z,450
2019-03-03T06:35:57.749Z,450
2019-03-03T06:37:04.980Z,451
2019-03-03T06:38:12.201Z,450
2019-03-03T06:39:19.402Z,451
2019-03-03T06:40:26.656Z,450
2019-03-03T06:41:33.587Z,450
2019-03-03T06:42:40.260Z,450
2019-03-03T06:43:47.469Z,451
2019-03-03T06:44:54.684Z,451
2019-03-03T06:46:01.625Z,450
2019-03-03T06:47:08.832Z,450
2019-03-03T06:48:16.057Z,449
2019-03-03T06:49:23.259Z,450
2019-03-03T06:50:29.925Z,450
2019-03-03T06:51:37.145Z,450
2019-03-03T06:52:44.101Z,450
2019-03-03T06:53:51.318Z,450
2019-03-03T06:54:58.520Z,450
2019-03-03T06:56:05.729Z,450
2019-03-03T06:57:13.176Z,450
2019-03-03T06:58:20.388Z,450
2019-03-03T06:59:27.327Z,449
2019-03-03T07:00:34.538Z,449
2019-03-03T07:01:41.519Z,450
2019-03-03T07:02:48.745Z,449
2019-03-03T07:03:55.963Z,449
2019-03-03T07:05:02.928Z,449
2019-03-03T07:06:09.863Z,449
2019-03-03T07:07:17.067Z,449
2019-03-03T07:08:24.291Z,450
2019-03-03T07:09:31.495Z,449
2019-03-03T07:10:38.935Z,449
2019-03-03T07:11:46.141Z,449
2019-03-03T07:12:52.855Z,449
2019-03-03T07:14:00.071Z,449
2019-03-03T07:15:07.309Z,448
2019-03-03T07:16:14.265Z,449
2019-03-03T07:17:21.501Z,449
2019-03-03T07:18:28.726Z,449
2019-03-03T07:19:35.678Z,448
2019-03-03T07:20:42.926Z,450
2019-03-03T07:21:50.155Z,449
2019-03-03T07:22:57.376Z,449
2019-03-03T07:24:04.816Z,448
2019-03-03T07:25:12.041Z,449
2019-03-03T07:26:19.266Z,449
2019-03-03T07:27:26.470Z,449
2019-03-03T07:28:33.916Z,449
2019-03-03T07:29:40.613Z,449
2019-03-03T07:30:47.819Z,449
2019-03-03T07:31:55.044Z,448
2019-03-03T07:33:01.980Z,449
2019-03-03T07:34:08.934Z,448
2019-03-03T07:35:16.165Z,449
2019-03-03T07:36:23.377Z,449
2019-03-03T07:37:30.825Z,449
2019-03-03T07:38:38.029Z,448
2019-03-03T07:39:45.236Z,449
2019-03-03T07:40:52.444Z,449
2019-03-03T07:41:59.888Z,449
2019-03-03T07:43:07.100Z,448
2019-03-03T07:44:14.310Z,448
2019-03-03T07:45:21.517Z,448
2019-03-03T07:46:28.755Z,449
2019-03-03T07:47:35.992Z,448
2019-03-03T07:48:43.213Z,448
2019-03-03T07:49:50.441Z,448
2019-03-03T07:50:57.645Z,448
2019-03-03T07:52:04.846Z,448
2019-03-03T07:53:11.809Z,449
2019-03-03T07:54:19.014Z,448
2019-03-03T07:55:26.457Z,448
2019-03-03T07:56:33.671Z,448
2019-03-03T07:57:40.873Z,448
2019-03-03T07:58:48.103Z,448
2019-03-03T07:59:55.359Z,448
2019-03-03T08:01:02.570Z,448
2019-03-03T08:02:09.780Z,448
2019-03-03T08:03:17.017Z,448
2019-03-03T08:04:23.992Z,449
2019-03-03T08:05:31.235Z,448
2019-03-03T08:06:38.468Z,448
2019-03-03T08:07:45.678Z,447
2019-03-03T08:08:53.129Z,448
2019-03-03T08:10:00.141Z,448
2019-03-03T08:11:07.629Z,448
2019-03-03T08:12:14.846Z,448
2019-03-03T08:13:22.010Z,449
2019-03-03T08:14:29.212Z,448
2019-03-03T08:15:36.436Z,448
2019-03-03T08:16:43.113Z,448
2019-03-03T08:17:50.067Z,447
2019-03-03T08:18:57.297Z,447
2019-03-03T08:20:04.730Z,447
2019-03-03T08:21:11.718Z,446
2019-03-03T08:22:19.134Z,447
2019-03-03T08:23:26.348Z,447
2019-03-03T08:24:33.788Z,447
2019-03-03T08:25:40.736Z,447
2019-03-03T08:26:47.670Z,447
2019-03-03T08:27:54.608Z,448
2019-03-03T08:29:01.834Z,448
2019-03-03T08:30:09.060Z,447
2019-03-03T08:31:16.488Z,448
2019-03-03T08:32:23.703Z,447
2019-03-03T08:33:31.147Z,448
2019-03-03T08:34:38.356Z,448
2019-03-03T08:35:45.587Z,447
2019-03-03T08:36:52.794Z,447
2019-03-03T08:38:00.241Z,448
2019-03-03T08:39:07.448Z,447
2019-03-03T08:40:14.670Z,447
2019-03-03T08:41:21.604Z,447
2019-03-03T08:42:28.820Z,446
2019-03-03T08:43:36.049Z,446
2019-03-03T08:44:42.985Z,447
2019-03-03T08:45:50.210Z,446
2019-03-03T08:46:57.422Z,447
2019-03-03T08:48:04.633Z,447
2019-03-03T08:49:12.077Z,446
2019-03-03T08:50:19.295Z,447
2019-03-03T08:51:26.742Z,446
2019-03-03T08:52:33.963Z,447
2019-03-03T08:53:41.178Z,447
2019-03-03T08:54:48.414Z,447
2019-03-03T08:55:55.364Z,446
2019-03-03T08:57:02.601Z,446
2019-03-03T08:58:09.565Z,447
2019-03-03T08:59:16.495Z,446
2019-03-03T09:00:23.931Z,447
2019-03-03T09:01:31.145Z,446
2019-03-03T09:02:38.104Z,446
2019-03-03T09:03:45.026Z,446
2019-03-03T09:04:52.247Z,446
2019-03-03T09:05:59.180Z,446
2019-03-03T09:07:05.875Z,446
2019-03-03T09:08:13.101Z,445
2019-03-03T09:09:20.333Z,446
2019-03-03T09:10:27.544Z,445
2019-03-03T09:11:34.789Z,445
2019-03-03T09:12:42.000Z,445
2019-03-03T09:13:49.166Z,446
2019-03-03T09:14:56.374Z,445
2019-03-03T09:16:03.599Z,446
2019-03-03T09:17:10.810Z,445
2019-03-03T09:18:18.055Z,445
2019-03-03T09:19:25.253Z,445
2019-03-03T09:20:32.466Z,445
2019-03-03T09:21:39.677Z,445
2019-03-03T09:22:46.625Z,446
2019-03-03T09:23:53.832Z,445
2019-03-03T09:25:01.220Z,445
2019-03-03T09:26:08.433Z,445
2019-03-03T09:27:15.391Z,445
2019-03-03T09:28:22.604Z,444
2019-03-03T09:29:29.830Z,443
2019-03-03T09:30:37.045Z,444
2019-03-03T09:31:44.258Z,445
2019-03-03T09:32:51.466Z,444
2019-03-03T09:33:58.680Z,444
2019-03-03T09:35:05.892Z,444
2019-03-03T09:36:13.103Z,444
2019-03-03T09:37:20.315Z,444
2019-03-03T09:38:27.270Z,445
2019-03-03T09:39:34.476Z,443
2019-03-03T09:40:41.688Z,444
2019-03-03T09:41:48.614Z,442
2019-03-03T09:42:55.824Z,443
2019-03-03T09:44:02.759Z,443
2019-03-03T09:45:09.667Z,443
2019-03-03T09:46:16.867Z,443
2019-03-03T09:47:24.080Z,443
2019-03-03T09:48:31.285Z,443
2019-03-03T09:49:38.480Z,443
2019-03-03T09:50:45.430Z,443
2019-03-03T09:51:52.360Z,442
2019-03-03T09:52:59.566Z,442
2019-03-03T09:54:06.782Z,442
2019-03-03T09:55:13.982Z,441
2019-03-03T09:56:20.920Z,442
2019-03-03T09:57:28.135Z,442
2019-03-03T09:58:35.337Z,441
2019-03-03T09:59:42.546Z,441
2019-03-03T10:00:49.759Z,441
2019-03-03T10:01:56.959Z,441
2019-03-03T10:03:04.181Z,441
2019-03-03T10:04:11.117Z,440
2019-03-03T10:05:18.074Z,438
2019-03-03T10:06:25.278Z,437
2019-03-03T10:07:32.508Z,438
2019-03-03T10:08:39.720Z,437
2019-03-03T10:09:46.653Z,437
2019-03-03T10:10:53.866Z,435
2019-03-03T10:12:01.091Z,434
2019-03-03T10:13:08.311Z,435
2019-03-03T10:14:15.554Z,434
2019-03-03T10:15:22.774Z,435
2019-03-03T10:16:29.993Z,436
2019-03-03T10:17:37.218Z,437
2019-03-03T10:18:44.167Z,436
2019-03-03T10:19:51.104Z,435
2019-03-03T10:20:58.317Z,436
2019-03-03T10:22:05.261Z,436
2019-03-03T10:23:12.478Z,434
2019-03-03T10:24:19.687Z,433
2019-03-03T23:00:07.066Z,446
2019-03-03T23:01:14.276Z,448
2019-03-03T23:02:36.613Z,447
2019-03-03T23:03:43.811Z,447
2019-03-03T23:04:51.041Z,446
2019-03-03T23:05:58.246Z,446
2019-03-03T23:07:05.448Z,445
2019-03-03T23:08:12.382Z,445
2019-03-03T23:09:19.588Z,445
2019-03-03T23:10:26.792Z,445
2019-03-03T23:11:34.011Z,445
2019-03-03T23:12:40.943Z,445
2019-03-03T23:13:48.149Z,445
2019-03-03T23:14:55.363Z,445
2019-03-03T23:16:02.574Z,445
2019-03-03T23:17:09.512Z,445
2019-03-03T23:18:16.713Z,444
2019-03-03T23:19:23.921Z,444
2019-03-03T23:20:31.145Z,444
2019-03-03T23:21:38.070Z,445
2019-03-03T23:22:47.362Z,444
2019-03-03T23:23:54.304Z,444
2019-03-03T23:25:01.517Z,444
2019-03-03T23:26:17.612Z,444
2019-03-03T23:27:24.813Z,443
2019-03-03T23:28:32.021Z,444
2019-03-03T23:29:38.959Z,444
2019-03-03T23:30:46.188Z,444
2019-03-03T23:31:53.390Z,445
2019-03-03T23:33:00.622Z,445
2019-03-03T23:34:07.844Z,446
2019-03-03T23:35:15.092Z,446
2019-03-03T23:36:22.312Z,447
2019-03-03T23:37:29.522Z,447
2019-03-03T23:38:36.463Z,447
2019-03-03T23:39:43.711Z,447
2019-03-03T23:40:50.389Z,447
2019-03-03T23:41:57.593Z,448
2019-03-03T23:43:04.547Z,448
2019-03-03T23:44:11.754Z,448
2019-03-03T23:45:18.984Z,448
2019-03-03T23:46:26.190Z,448
2019-03-03T23:47:33.399Z,448
2019-03-03T23:48:40.067Z,447
2019-03-03T23:49:47.272Z,448
2019-03-03T23:50:54.483Z,448
2019-03-03T23:52:01.153Z,448
2019-03-03T23:53:08.099Z,448
2019-03-03T23:54:15.056Z,448
2019-03-03T23:55:22.267Z,449
2019-03-03T23:56:29.485Z,449
2019-03-03T23:57:36.698Z,449
2019-03-03T23:58:43.923Z,449
2019-03-03T23:59:50.838Z,449
